createdAt,value
2019-01-30T00:00:37.464Z,1.35
2019-01-30T00:03:05.796Z,1.60
2019-01-30T00:05:34.097Z,1.62
2019-01-30T00:08:02.443Z,1.92
2019-01-30T00:10:30.850Z,2.05
2019-01-30T00:13:00.202Z,2.33
2019-01-30T00:15:28.558Z,3.12
2019-01-30T00:17:56.910Z,2.67
2019-01-30T00:20:25.229Z,2.00
2019-01-30T00:22:53.615Z,1.40
2019-01-30T00:25:23.939Z,1.50
2019-01-30T00:27:51.925Z,1.20
2019-01-30T00:30:20.873Z,1.40
2019-01-30T00:32:49.213Z,1.82
2019-01-30T00:35:17.537Z,1.72
2019-01-30T00:37:45.917Z,2.10
2019-01-30T00:40:15.137Z,1.90
2019-01-30T00:42:43.584Z,1.92
2019-01-30T00:45:15.511Z,1.33
2019-01-30T00:47:43.784Z,1.92
2019-01-30T00:50:13.421Z,1.43
2019-01-30T00:52:41.750Z,1.57
2019-01-30T00:55:10.554Z,1.47
2019-01-30T00:57:38.901Z,1.52
2019-01-30T01:00:14.594Z,1.30
2019-01-30T01:02:38.727Z,2.08
2019-01-30T01:05:07.030Z,1.50
2019-01-30T01:07:35.370Z,1.82
2019-01-30T01:10:05.497Z,1.80
2019-01-30T01:12:34.846Z,1.47
2019-01-30T01:15:06.288Z,1.62
2019-01-30T01:17:34.630Z,2.02
2019-01-30T01:20:02.987Z,1.55
2019-01-30T01:22:31.695Z,1.55
2019-01-30T01:25:00.018Z,1.42
2019-01-30T01:27:28.368Z,1.27
2019-01-30T01:29:56.718Z,1.70
2019-01-30T01:32:26.033Z,1.73
2019-01-30T01:34:54.407Z,2.25
2019-01-30T01:37:22.730Z,0.98
2019-01-30T01:39:51.215Z,2.62
2019-01-30T01:42:19.504Z,1.60
2019-01-30T01:44:47.815Z,2.02
2019-01-30T01:47:16.143Z,1.75
2019-01-30T01:49:44.494Z,1.40
2019-01-30T01:52:12.830Z,2.40
2019-01-30T01:54:41.175Z,1.70
2019-01-30T01:57:09.502Z,1.63
2019-01-30T01:59:37.838Z,1.92
2019-01-30T02:02:06.143Z,2.20
2019-01-30T02:04:34.457Z,1.77
2019-01-30T02:07:02.824Z,1.20
2019-01-30T02:09:31.113Z,1.37
2019-01-30T02:11:59.441Z,1.42
2019-01-30T02:14:27.787Z,1.10
2019-01-30T02:16:56.104Z,1.72
2019-01-30T02:19:24.436Z,1.60
2019-01-30T02:21:52.771Z,1.32
2019-01-30T02:24:21.083Z,1.10
2019-01-30T02:26:49.410Z,1.27
2019-01-30T02:29:17.765Z,1.00
2019-01-30T02:31:46.102Z,1.00
2019-01-30T02:34:14.435Z,1.47
2019-01-30T02:36:53.354Z,1.35
2019-01-30T02:39:21.662Z,0.90
2019-01-30T02:41:49.975Z,1.30
2019-01-30T02:44:18.314Z,1.47
2019-01-30T02:46:47.784Z,1.35
2019-01-30T02:49:16.082Z,1.40
2019-01-30T02:51:44.426Z,1.22
2019-01-30T02:54:12.761Z,1.50
2019-01-30T02:56:41.118Z,1.55
2019-01-30T02:59:09.427Z,2.06
2019-01-30T03:01:51.470Z,1.82
2019-01-30T03:04:19.803Z,1.40
2019-01-30T03:06:48.104Z,1.80
2019-01-30T03:09:16.417Z,2.50
2019-01-30T03:11:44.786Z,2.08
2019-01-30T03:14:13.076Z,1.82
2019-01-30T03:16:41.443Z,2.62
2019-01-30T03:19:09.773Z,1.42
2019-01-30T03:21:38.069Z,2.12
2019-01-30T03:24:06.408Z,2.17
2019-01-30T03:26:34.805Z,1.85
2019-01-30T03:29:03.126Z,1.52
2019-01-30T03:31:31.450Z,2.20
2019-01-30T03:33:59.787Z,2.30
2019-01-30T03:36:28.114Z,2.00
2019-01-30T03:38:56.442Z,1.85
2019-01-30T03:41:24.778Z,1.90
2019-01-30T03:43:53.113Z,1.67
2019-01-30T03:46:21.409Z,1.98
2019-01-30T03:48:49.742Z,1.80
2019-01-30T03:51:18.072Z,2.60
2019-01-30T03:53:46.415Z,3.05
2019-01-30T03:56:14.730Z,2.10
2019-01-30T03:58:43.039Z,1.40
2019-01-30T04:01:11.448Z,1.63
2019-01-30T04:03:39.755Z,1.60
2019-01-30T04:06:09.090Z,1.80
2019-01-30T04:08:37.393Z,1.75
2019-01-30T04:11:05.763Z,1.40
2019-01-30T04:13:34.091Z,1.52
2019-01-30T04:16:02.537Z,1.70
2019-01-30T04:18:30.834Z,1.20
2019-01-30T04:20:59.174Z,1.52
2019-01-30T04:23:27.487Z,1.52
2019-01-30T04:25:56.171Z,1.65
2019-01-30T04:28:25.550Z,1.65
2019-01-30T04:30:53.907Z,2.12
2019-01-30T04:33:22.234Z,1.52
2019-01-30T04:35:50.572Z,1.67
2019-01-30T04:38:18.873Z,1.40
2019-01-30T04:40:47.193Z,1.40
2019-01-30T04:43:18.581Z,2.10
2019-01-30T04:45:46.897Z,2.42
2019-01-30T04:48:15.258Z,10.20
2019-01-30T04:50:43.608Z,3.25
2019-01-30T04:53:11.902Z,2.77
2019-01-30T04:55:40.229Z,3.33
2019-01-30T04:58:09.569Z,2.73
2019-01-30T05:00:37.887Z,3.70
2019-01-30T05:03:06.219Z,2.00
2019-01-30T05:05:36.260Z,4.10
2019-01-30T05:08:04.580Z,3.27
2019-01-30T05:10:32.927Z,3.87
2019-01-30T05:13:01.262Z,5.45
2019-01-30T05:15:29.563Z,3.37
2019-01-30T05:17:57.898Z,8.50
2019-01-30T05:20:26.286Z,3.55
2019-01-30T05:22:54.544Z,9.38
2019-01-30T05:25:24.043Z,19.40
2019-01-30T05:27:52.384Z,7.60
2019-01-30T05:30:27.666Z,2.62
2019-01-30T05:32:56.002Z,1.80
2019-01-30T05:35:24.336Z,2.45
2019-01-30T05:37:52.891Z,2.20
2019-01-30T05:40:21.810Z,3.52
2019-01-30T05:42:50.151Z,2.02
2019-01-30T05:45:18.494Z,2.80
2019-01-30T05:47:46.821Z,2.67
2019-01-30T05:50:15.246Z,3.25
2019-01-30T05:52:43.584Z,2.10
2019-01-30T05:55:12.693Z,2.05
2019-01-30T05:57:41.022Z,2.10
2019-01-30T06:00:10.930Z,2.02
2019-01-30T06:02:39.246Z,2.77
2019-01-30T06:05:07.586Z,2.25
2019-01-30T06:07:35.893Z,2.83
2019-01-30T06:10:05.838Z,2.50
2019-01-30T06:12:34.159Z,2.40
2019-01-30T06:15:02.509Z,4.83
2019-01-30T06:17:30.863Z,4.20
2019-01-30T06:19:59.197Z,4.30
2019-01-30T06:22:27.541Z,4.92
2019-01-30T06:24:55.880Z,3.50
2019-01-30T06:27:24.204Z,3.33
2019-01-30T06:29:55.856Z,4.37
2019-01-30T06:32:24.199Z,2.75
2019-01-30T06:34:52.546Z,2.92
2019-01-30T06:37:20.879Z,3.17
2019-01-30T06:39:50.754Z,3.58
2019-01-30T06:42:19.061Z,2.83
2019-01-30T06:44:48.500Z,3.72
2019-01-30T06:47:16.821Z,5.72
2019-01-30T06:49:45.207Z,4.58
2019-01-30T06:52:13.546Z,3.15
2019-01-30T06:54:41.895Z,2.90
2019-01-30T06:57:10.242Z,2.72
2019-01-30T06:59:38.554Z,2.70
2019-01-30T07:02:06.906Z,2.58
2019-01-30T07:04:35.214Z,2.52
2019-01-30T07:07:04.303Z,2.85
2019-01-30T07:09:32.633Z,2.40
2019-01-30T07:12:01.111Z,2.50
2019-01-30T07:14:29.407Z,3.25
2019-01-30T07:16:57.744Z,2.75
2019-01-30T07:19:26.054Z,2.47
2019-01-30T07:21:54.356Z,2.00
2019-01-30T07:24:22.677Z,1.90
2019-01-30T07:26:50.986Z,2.20
2019-01-30T07:29:19.320Z,2.03
2019-01-30T07:31:47.683Z,2.10
2019-01-30T07:34:16.018Z,2.80
2019-01-30T07:36:44.365Z,2.67
2019-01-30T07:39:13.402Z,2.37
2019-01-30T07:41:41.698Z,2.20
2019-01-30T07:44:10.025Z,2.63
2019-01-30T07:46:38.367Z,2.35
2019-01-30T07:49:06.715Z,1.40
2019-01-30T07:51:35.038Z,1.75
2019-01-30T07:54:03.376Z,1.50
2019-01-30T07:56:31.691Z,1.42
2019-01-30T07:59:00.018Z,1.75
2019-01-30T08:01:28.358Z,1.65
2019-01-30T08:03:56.680Z,2.75
2019-01-30T08:06:25.019Z,2.20
2019-01-30T08:08:53.454Z,1.65
2019-01-30T08:11:21.774Z,2.10
2019-01-30T08:13:50.095Z,1.70
2019-01-30T08:16:18.414Z,1.75
2019-01-30T08:18:46.760Z,2.33
2019-01-30T08:21:15.103Z,2.00
2019-01-30T08:23:43.439Z,2.10
2019-01-30T08:26:12.265Z,1.90
2019-01-30T08:28:40.916Z,2.00
2019-01-30T08:31:09.328Z,1.50
2019-01-30T08:33:38.671Z,2.62
2019-01-30T08:36:07.008Z,3.75
2019-01-30T08:38:35.350Z,3.45
2019-01-30T08:41:03.651Z,2.33
2019-01-30T08:43:33.077Z,2.58
2019-01-30T08:46:01.405Z,2.40
2019-01-30T08:48:30.232Z,2.62
2019-01-30T08:50:59.695Z,2.25
2019-01-30T08:53:27.990Z,1.90
2019-01-30T08:55:56.318Z,1.92
2019-01-30T08:58:24.646Z,2.20
2019-01-30T09:00:52.954Z,1.90
2019-01-30T09:03:21.294Z,1.57
2019-01-30T09:05:49.630Z,2.22
2019-01-30T09:08:17.961Z,2.10
2019-01-30T09:10:46.291Z,2.40
2019-01-30T09:13:14.653Z,2.23
2019-01-30T09:15:42.990Z,2.22
2019-01-30T09:18:11.322Z,2.17
2019-01-30T09:20:39.739Z,1.80
2019-01-30T09:23:08.041Z,1.92
2019-01-30T09:25:36.369Z,1.98
2019-01-30T09:28:04.688Z,1.70
2019-01-30T09:30:34.571Z,2.20
2019-01-30T09:33:02.925Z,1.70
2019-01-30T09:35:31.253Z,2.02
2019-01-30T09:37:59.612Z,2.15
2019-01-30T09:40:28.904Z,1.92
2019-01-30T09:42:57.251Z,2.02
2019-01-30T09:45:25.736Z,1.80
2019-01-30T09:47:54.115Z,1.67
2019-01-30T09:50:23.247Z,2.00
2019-01-30T09:52:51.541Z,1.60
2019-01-30T09:55:20.070Z,1.70
2019-01-30T09:57:48.402Z,1.67
2019-01-30T10:00:29.125Z,1.67
2019-01-30T10:02:59.025Z,1.82
2019-01-30T10:05:28.819Z,2.00
2019-01-30T10:07:57.159Z,3.92
2019-01-30T10:10:33.003Z,2.25
2019-01-30T10:13:01.343Z,2.20
2019-01-30T10:15:30.750Z,4.10
2019-01-30T10:17:59.090Z,6.45
2019-01-30T10:20:28.233Z,5.40
2019-01-30T10:22:56.901Z,3.00
2019-01-30T10:25:25.261Z,3.72
2019-01-30T10:27:53.918Z,4.42
2019-01-30T10:30:26.493Z,4.70
2019-01-30T10:32:54.808Z,4.70
2019-01-30T10:35:23.146Z,5.73
2019-01-30T10:37:51.477Z,4.92
2019-01-30T10:40:20.281Z,4.20
2019-01-30T10:42:48.797Z,3.45
2019-01-30T10:45:17.152Z,4.20
2019-01-30T10:47:45.457Z,4.22
2019-01-30T10:50:23.599Z,3.87
2019-01-30T10:52:51.889Z,5.00
2019-01-30T10:55:21.222Z,5.00
2019-01-30T10:57:50.368Z,4.40
2019-01-30T11:00:25.837Z,3.42
2019-01-30T11:02:51.511Z,3.27
2019-01-30T11:05:19.827Z,3.05
2019-01-30T11:07:48.171Z,3.40
2019-01-30T11:10:20.347Z,3.63
2019-01-30T11:12:48.646Z,3.15
2019-01-30T11:15:19.501Z,3.10
2019-01-30T11:17:47.829Z,3.02
2019-01-30T11:20:17.194Z,9.38
2019-01-30T11:22:45.522Z,5.95
2019-01-30T11:25:15.254Z,4.00
2019-01-30T11:27:43.571Z,3.90
2019-01-30T11:30:12.693Z,3.15
2019-01-30T11:32:41.188Z,2.95
2019-01-30T11:35:10.083Z,3.10
2019-01-30T11:37:38.395Z,4.25
2019-01-30T11:40:08.298Z,3.40
2019-01-30T11:42:36.606Z,2.90
2019-01-30T11:45:06.498Z,4.00
2019-01-30T11:47:34.939Z,4.00
2019-01-30T11:50:03.352Z,4.00
2019-01-30T11:52:31.670Z,4.40
2019-01-30T11:54:59.975Z,2.45
2019-01-30T11:57:28.312Z,4.40
2019-01-30T11:59:56.641Z,4.25
2019-01-30T12:02:24.950Z,3.75
2019-01-30T12:04:53.300Z,3.98
2019-01-30T12:07:21.664Z,3.12
2019-01-30T12:09:49.968Z,1.70
2019-01-30T12:12:18.321Z,1.10
2019-01-30T12:14:46.704Z,1.62
2019-01-30T12:17:15.048Z,1.70
2019-01-30T12:19:43.353Z,2.58
2019-01-30T12:22:11.734Z,2.10
2019-01-30T12:24:40.097Z,3.00
2019-01-30T12:27:08.442Z,2.22
2019-01-30T12:29:36.769Z,2.75
2019-01-30T12:32:05.272Z,2.40
2019-01-30T12:34:35.121Z,2.30
2019-01-30T12:37:03.449Z,2.98
2019-01-30T12:39:31.767Z,2.33
2019-01-30T12:42:00.102Z,2.22
2019-01-30T12:44:28.400Z,2.17
2019-01-30T12:46:56.744Z,2.25
2019-01-30T12:49:25.069Z,3.10
2019-01-30T12:51:57.980Z,2.30
2019-01-30T12:54:26.297Z,2.33
2019-01-30T12:56:54.606Z,2.72
2019-01-30T12:59:25.994Z,4.17
2019-01-30T13:01:54.304Z,3.02
2019-01-30T13:04:22.652Z,2.63
2019-01-30T13:06:50.989Z,4.15
2019-01-30T13:09:19.313Z,3.05
2019-01-30T13:11:47.963Z,2.65
2019-01-30T13:14:16.303Z,3.55
2019-01-30T13:16:44.645Z,4.08
2019-01-30T13:19:12.978Z,4.45
2019-01-30T13:21:41.277Z,4.00
2019-01-30T13:24:09.602Z,3.10
2019-01-30T13:26:37.927Z,4.75
2019-01-30T13:29:06.235Z,5.17
2019-01-30T13:31:34.583Z,5.62
2019-01-30T13:34:02.933Z,5.30
2019-01-30T13:36:31.271Z,3.02
2019-01-30T13:38:59.629Z,1.90
2019-01-30T13:41:27.981Z,1.92
2019-01-30T13:43:56.421Z,3.52
2019-01-30T13:46:47.036Z,2.83
2019-01-30T13:49:15.391Z,4.25
2019-01-30T13:51:43.708Z,3.15
2019-01-30T13:54:12.163Z,4.15
2019-01-30T13:56:41.545Z,3.55
2019-01-30T13:59:10.051Z,2.47
2019-01-30T14:01:38.343Z,3.65
2019-01-30T14:04:08.974Z,3.12
2019-01-30T14:06:37.601Z,3.10
2019-01-30T14:09:06.890Z,3.15
2019-01-30T14:11:35.236Z,4.17
2019-01-30T14:14:04.727Z,4.50
2019-01-30T14:16:33.079Z,4.42
2019-01-30T14:19:01.519Z,3.70
2019-01-30T14:21:29.872Z,3.75
2019-01-30T14:23:58.244Z,3.70
2019-01-30T14:26:26.522Z,4.55
2019-01-30T14:28:54.874Z,4.47
2019-01-30T14:31:23.265Z,3.87
2019-01-30T14:33:51.613Z,4.42
2019-01-30T14:36:20.050Z,2.85
2019-01-30T14:38:48.458Z,4.45
2019-01-30T14:41:17.921Z,3.27
2019-01-30T14:43:49.019Z,3.83
2019-01-30T14:46:17.415Z,4.30
2019-01-30T14:48:45.749Z,6.12
2019-01-30T14:51:14.106Z,5.40
2019-01-30T14:53:42.454Z,4.37
2019-01-30T14:56:10.809Z,2.60
2019-01-30T14:58:39.171Z,4.40
2019-01-30T15:01:07.464Z,4.70
2019-01-30T15:03:35.845Z,5.62
2019-01-30T15:06:04.411Z,3.08
2019-01-30T15:08:32.791Z,4.40
2019-01-30T15:11:01.213Z,3.33
2019-01-30T15:13:29.539Z,5.10
2019-01-30T15:15:57.913Z,4.28
2019-01-30T15:18:26.262Z,4.33
2019-01-30T15:20:54.663Z,4.47
2019-01-30T15:23:23.959Z,5.58
2019-01-30T15:25:52.442Z,5.83
2019-01-30T15:28:20.699Z,7.40
2019-01-30T15:30:49.079Z,8.00
2019-01-30T15:33:17.427Z,6.37
2019-01-30T15:35:45.875Z,11.45
2019-01-30T15:38:14.299Z,15.55
2019-01-30T15:40:42.621Z,15.63
2019-01-30T15:43:11.129Z,18.17
2019-01-30T15:45:39.445Z,20.12
2019-01-30T15:48:07.881Z,18.98
2019-01-30T15:50:39.928Z,25.60
2019-01-30T15:53:09.818Z,18.62
2019-01-30T15:55:38.175Z,15.25
2019-01-30T15:58:07.757Z,17.37
2019-01-30T16:00:49.229Z,15.13
2019-01-30T16:03:17.619Z,14.60
2019-01-30T16:05:45.970Z,11.90
2019-01-30T16:08:14.348Z,14.87
2019-01-30T16:10:42.742Z,15.72
2019-01-30T16:13:11.078Z,12.97
2019-01-30T16:15:41.078Z,10.98
2019-01-30T16:18:09.515Z,10.95
2019-01-30T16:20:37.844Z,8.53
2019-01-30T16:23:07.185Z,9.03
2019-01-30T16:25:35.494Z,10.30
2019-01-30T16:28:04.267Z,8.48
2019-01-30T16:30:32.587Z,6.80
2019-01-30T16:33:00.984Z,8.23
2019-01-30T16:35:30.303Z,7.35
2019-01-30T16:37:58.702Z,6.85
2019-01-30T16:40:27.054Z,5.97
2019-01-30T16:42:57.541Z,5.53
2019-01-30T16:45:26.925Z,5.72
2019-01-30T16:47:55.274Z,7.60
2019-01-30T16:50:23.604Z,8.18
2019-01-30T16:52:51.910Z,7.92
2019-01-30T16:55:20.558Z,6.35
2019-01-30T16:57:49.875Z,6.50
2019-01-30T17:00:29.053Z,6.53
2019-01-30T17:02:57.490Z,6.45
2019-01-30T17:05:26.036Z,9.13
2019-01-30T17:07:54.381Z,8.18
2019-01-30T17:10:22.713Z,7.47
2019-01-30T17:12:51.075Z,9.20
2019-01-30T17:15:23.944Z,8.30
2019-01-30T17:17:52.254Z,10.15
2019-01-30T17:20:24.306Z,10.37
2019-01-30T17:22:52.638Z,11.95
2019-01-30T17:25:21.979Z,12.50
2019-01-30T17:27:51.325Z,13.45
2019-01-30T17:30:33.337Z,16.87
2019-01-30T17:33:01.766Z,14.75
2019-01-30T17:35:30.069Z,14.30
2019-01-30T17:37:58.693Z,9.98
2019-01-30T17:40:27.617Z,7.92
2019-01-30T17:42:55.973Z,8.70
2019-01-30T17:45:24.303Z,10.75
2019-01-30T17:47:53.617Z,10.43
2019-01-30T17:50:25.553Z,15.17
2019-01-30T17:52:53.873Z,13.83
2019-01-30T17:55:22.220Z,9.48
2019-01-30T17:57:50.563Z,7.78
2019-01-30T18:00:22.180Z,7.60
2019-01-30T18:02:51.135Z,8.35
2019-01-30T18:05:19.473Z,8.00
2019-01-30T18:07:47.819Z,8.75
2019-01-30T18:10:17.850Z,8.73
2019-01-30T18:12:46.314Z,8.25
2019-01-30T18:15:14.668Z,8.70
2019-01-30T18:17:42.989Z,9.08
2019-01-30T18:20:15.863Z,8.05
2019-01-30T18:22:44.586Z,8.85
2019-01-30T18:25:14.289Z,10.08
2019-01-30T18:27:42.634Z,12.00
2019-01-30T18:30:12.225Z,10.72
2019-01-30T18:32:40.493Z,10.80
2019-01-30T18:35:08.869Z,11.34
2019-01-30T18:37:37.174Z,11.93
2019-01-30T18:40:09.763Z,13.43
2019-01-30T18:42:38.070Z,12.88
2019-01-30T18:45:08.035Z,12.80
2019-01-30T18:47:37.369Z,12.10
2019-01-30T18:50:08.382Z,12.88
2019-01-30T18:52:38.265Z,12.18
2019-01-30T18:58:02.574Z,12.93
2019-01-30T19:00:32.526Z,13.72
2019-01-30T19:03:06.599Z,13.25
2019-01-30T19:05:34.932Z,12.65
2019-01-30T19:08:03.308Z,11.73
2019-01-30T19:10:34.280Z,11.97
2019-01-30T19:13:02.589Z,11.45
2019-01-30T19:15:30.942Z,12.68
2019-01-30T19:17:59.261Z,12.90
2019-01-30T19:20:29.014Z,13.30
2019-01-30T19:22:57.334Z,14.53
2019-01-30T19:25:25.682Z,13.55
2019-01-30T19:27:56.020Z,15.45
2019-01-30T19:30:24.866Z,13.03
2019-01-30T19:32:53.174Z,14.45
2019-01-30T19:35:21.527Z,12.80
2019-01-30T19:37:50.881Z,13.98
2019-01-30T19:40:20.641Z,13.03
2019-01-30T19:42:49.281Z,14.87
2019-01-30T19:45:21.551Z,13.40
2019-01-30T19:47:51.172Z,13.40
2019-01-30T19:50:23.888Z,14.07
2019-01-30T19:52:52.222Z,14.30
2019-01-30T19:55:20.546Z,17.07
2019-01-30T19:57:48.921Z,15.43
2019-01-30T20:00:18.572Z,16.42
2019-01-30T20:02:46.915Z,15.65
2019-01-30T20:05:15.251Z,15.23
2019-01-30T20:07:43.572Z,14.38
2019-01-30T20:10:13.493Z,14.83
2019-01-30T20:12:41.807Z,13.88
2019-01-30T20:15:10.346Z,13.35
2019-01-30T20:17:38.686Z,15.45
2019-01-30T20:20:08.419Z,22.93
2019-01-30T20:22:36.775Z,22.48
2019-01-30T20:25:06.682Z,18.25
2019-01-30T20:27:34.989Z,17.32
2019-01-30T20:30:03.530Z,18.10
2019-01-30T20:32:31.848Z,15.75
2019-01-30T20:35:00.181Z,16.67
2019-01-30T20:37:28.547Z,16.85
2019-01-30T20:39:56.900Z,15.03
2019-01-30T20:42:25.244Z,14.60
2019-01-30T20:44:53.590Z,14.68
2019-01-30T20:47:21.947Z,14.57
2019-01-30T20:49:50.759Z,16.10
2019-01-30T20:52:19.135Z,14.47
2019-01-30T20:54:47.519Z,15.98
2019-01-30T20:57:15.853Z,18.62
2019-01-30T20:59:44.175Z,17.57
2019-01-30T21:02:12.522Z,16.60
2019-01-30T21:04:42.322Z,15.98
2019-01-30T21:07:10.656Z,16.40
2019-01-30T21:09:39.011Z,16.15
2019-01-30T21:12:07.323Z,16.80
2019-01-30T21:14:35.694Z,17.87
2019-01-30T21:17:04.021Z,18.10
2019-01-30T21:19:32.480Z,19.85
2019-01-30T21:22:00.937Z,18.77
2019-01-30T21:24:29.280Z,20.30
2019-01-30T21:26:57.625Z,20.25
2019-01-30T21:29:25.946Z,20.57
2019-01-30T21:31:54.917Z,19.55
2019-01-30T21:34:23.629Z,21.12
2019-01-30T21:36:53.456Z,27.00
2019-01-30T21:39:21.790Z,28.38
2019-01-30T21:41:50.139Z,22.48
2019-01-30T21:44:18.445Z,20.68
2019-01-30T21:46:46.759Z,18.37
2019-01-30T21:49:15.124Z,17.55
2019-01-30T21:51:43.438Z,15.70
2019-01-30T21:54:11.742Z,15.37
2019-01-30T21:56:40.091Z,16.17
2019-01-30T21:59:08.534Z,16.17
2019-01-30T22:01:36.846Z,16.65
2019-01-30T22:04:05.190Z,15.72
2019-01-30T22:06:33.515Z,18.67
2019-01-30T22:09:01.859Z,17.00
2019-01-30T22:11:31.737Z,19.70
2019-01-30T22:14:00.062Z,20.52
2019-01-30T22:16:28.439Z,25.02
2019-01-30T22:18:56.799Z,31.00
2019-01-30T22:21:25.094Z,27.87
2019-01-30T22:24:05.024Z,26.50
2019-01-30T22:26:25.983Z,27.35
2019-01-30T22:28:54.345Z,28.27
2019-01-30T22:31:22.697Z,28.17
2019-01-30T22:33:51.046Z,29.55
2019-01-30T22:36:19.485Z,26.50
2019-01-30T22:38:47.817Z,27.35
2019-01-30T22:41:16.154Z,26.93
2019-01-30T22:43:44.461Z,27.70
2019-01-30T22:46:13.101Z,24.90
2019-01-30T22:48:41.465Z,23.80
2019-01-30T22:51:09.783Z,21.55
2019-01-30T22:53:38.221Z,20.17
2019-01-30T22:56:06.558Z,23.18
2019-01-30T22:58:34.934Z,28.07
2019-01-30T23:01:10.817Z,32.40
2019-01-30T23:03:43.415Z,22.73
2019-01-30T23:06:13.322Z,21.40
2019-01-30T23:08:49.208Z,21.12
2019-01-30T23:11:22.178Z,20.97
2019-01-30T23:13:52.210Z,20.97
2019-01-30T23:16:40.285Z,21.30
2019-01-30T23:19:24.959Z,19.98
2019-01-30T23:22:00.576Z,20.57
2019-01-30T23:24:46.926Z,36.60
2019-01-30T23:27:22.855Z,32.58
2019-01-30T23:29:52.757Z,27.98
2019-01-30T23:32:22.673Z,28.77
2019-01-30T23:34:53.332Z,31.20
2019-01-30T23:37:29.251Z,30.80
2019-01-30T23:39:59.139Z,30.05
2019-01-30T23:42:31.970Z,31.10
2019-01-30T23:45:07.574Z,29.72
2019-01-30T23:47:49.655Z,30.57
2019-01-30T23:50:22.376Z,20.80
2019-01-30T23:52:54.969Z,19.77
2019-01-30T23:55:30.826Z,25.25
